createdAt,value
2018-06-05T00:06:46.286Z,74.70
2018-06-05T00:09:33.444Z,74.80
2018-06-05T00:12:22.093Z,75.80
2018-06-05T00:15:09.445Z,76.10
2018-06-05T00:18:03.189Z,75.40
2018-06-05T00:23:40.583Z,74.80
2018-06-05T00:26:26.935Z,74.50
2018-06-05T00:31:48.645Z,72.80
2018-06-05T00:34:25.261Z,72.40
2018-06-05T00:37:02.417Z,73.00
2018-06-05T00:39:39.124Z,72.40
2018-06-05T00:42:16.161Z,72.20
2018-06-05T00:44:53.088Z,72.30
2018-06-05T00:47:36.922Z,72.30
2018-06-05T00:50:18.234Z,72.70
2018-06-05T00:55:31.903Z,71.70
2018-06-05T00:58:07.499Z,71.70
2018-06-05T01:03:29.139Z,73.10
2018-06-05T01:06:06.774Z,72.60
2018-06-05T01:08:51.902Z,72.80
2018-06-05T01:11:29.630Z,72.70
2018-06-05T01:14:08.845Z,73.60
2018-06-05T01:16:43.833Z,72.40
2018-06-05T01:19:24.505Z,70.90
2018-06-05T01:22:00.999Z,70.00
2018-06-05T01:24:39.741Z,70.10
2018-06-05T01:27:18.301Z,71.10
2018-06-05T01:32:35.569Z,71.10
2018-06-05T01:37:47.633Z,71.10
2018-06-05T01:40:27.399Z,72.10
2018-06-05T01:43:08.081Z,71.90
2018-06-05T01:45:44.437Z,71.80
2018-06-05T01:48:23.615Z,71.30
2018-06-05T01:51:05.815Z,71.80
2018-06-05T01:53:44.385Z,73.80
2018-06-05T01:56:25.792Z,74.20
2018-06-05T01:59:03.279Z,75.50
2018-06-05T02:01:36.444Z,75.00
2018-06-05T02:04:15.710Z,74.30
2018-06-05T02:06:58.842Z,73.10
2018-06-05T02:09:43.340Z,72.30
2018-06-05T02:12:26.699Z,71.50
2018-06-05T02:15:10.100Z,71.20
2018-06-05T02:17:46.140Z,71.40
2018-06-05T02:20:26.317Z,71.30
2018-06-05T02:25:39.228Z,70.70
2018-06-05T02:28:19.376Z,70.40
2018-06-05T02:31:02.360Z,71.70
2018-06-05T02:33:44.991Z,71.40
2018-06-05T02:39:14.479Z,72.50
2018-06-05T02:41:51.540Z,72.80
2018-06-05T02:44:35.418Z,71.80
2018-06-05T02:47:13.456Z,71.20
2018-06-05T02:49:54.251Z,70.90
2018-06-05T02:52:37.405Z,70.90
2018-06-05T02:55:17.345Z,70.30
2018-06-05T02:57:52.545Z,69.90
2018-06-05T03:00:30.646Z,70.10
2018-06-05T03:03:06.950Z,70.40
2018-06-05T03:08:19.837Z,71.90
2018-06-05T03:10:54.433Z,71.80
2018-06-05T03:13:35.753Z,71.40
2018-06-05T03:18:56.311Z,71.00
2018-06-05T03:21:27.857Z,72.00
2018-06-05T03:24:01.947Z,74.10
2018-06-05T03:26:38.952Z,75.20
2018-06-05T03:29:19.142Z,74.90
2018-06-05T03:32:00.979Z,76.30
2018-06-05T03:34:44.288Z,75.80
2018-06-05T03:37:31.667Z,74.80
2018-06-05T03:40:21.557Z,73.30
2018-06-05T03:43:03.573Z,72.20
2018-06-05T03:45:40.810Z,71.50
2018-06-05T03:48:20.832Z,71.30
2018-06-05T03:50:59.546Z,71.90
2018-06-05T03:53:41.079Z,71.80
2018-06-05T03:56:18.380Z,71.30
2018-06-05T03:58:56.576Z,71.70
2018-06-05T04:01:36.245Z,71.60
2018-06-05T04:04:17.296Z,71.00
2018-06-05T04:06:58.043Z,70.90
2018-06-05T04:09:43.231Z,71.10
2018-06-05T04:12:23.169Z,71.20
2018-06-05T04:15:04.383Z,72.10
2018-06-05T04:17:41.421Z,72.50
2018-06-05T04:20:23.483Z,73.00
2018-06-05T04:23:02.793Z,73.30
2018-06-05T04:25:41.497Z,72.30
2018-06-05T04:28:17.840Z,72.50
2018-06-05T04:30:58.482Z,72.60
2018-06-05T04:33:39.624Z,72.70
2018-06-05T04:36:17.405Z,72.10
2018-06-05T04:39:01.211Z,72.10
2018-06-05T04:41:38.929Z,73.40
2018-06-05T04:44:16.837Z,70.10
2018-06-05T04:46:53.060Z,69.40
2018-06-05T04:49:30.925Z,69.40
2018-06-05T04:52:06.209Z,70.80
2018-06-05T04:54:48.659Z,70.00
2018-06-05T05:00:03.025Z,67.70
2018-06-05T05:02:43.733Z,66.50
2018-06-05T05:05:18.593Z,65.90
2018-06-05T05:07:57.248Z,66.70
2018-06-05T05:10:33.542Z,65.30
2018-06-05T05:15:56.165Z,66.60
2018-06-05T05:18:35.628Z,67.70
2018-06-05T05:21:18.386Z,68.30
2018-06-05T05:23:58.621Z,67.40
2018-06-05T05:26:43.006Z,67.20
2018-06-05T05:29:24.316Z,67.40
2018-06-05T05:32:02.461Z,67.50
2018-06-05T05:34:42.171Z,67.70
2018-06-05T05:37:22.993Z,66.90
2018-06-05T05:40:10.698Z,67.70
2018-06-05T05:42:48.277Z,67.60
2018-06-05T05:45:24.452Z,69.20
2018-06-05T05:48:01.534Z,68.30
2018-06-05T05:50:45.187Z,68.70
2018-06-05T05:53:25.872Z,67.20
2018-06-05T05:56:09.422Z,68.00
2018-06-05T05:58:50.832Z,68.20
2018-06-05T06:01:32.322Z,68.40
2018-06-05T06:04:12.416Z,65.90
2018-06-05T06:06:55.493Z,65.40
2018-06-05T06:09:30.692Z,64.70
2018-06-05T06:12:11.245Z,64.80
2018-06-05T06:14:51.480Z,62.60
2018-06-05T06:20:03.919Z,62.10
2018-06-05T06:22:48.086Z,61.90
2018-06-05T06:25:29.369Z,62.90
2018-06-05T06:28:14.003Z,62.40
2018-06-05T06:33:40.102Z,60.20
2018-06-05T06:36:24.210Z,59.60
2018-06-05T06:38:59.242Z,60.80
2018-06-05T06:41:34.806Z,59.60
2018-06-05T06:46:56.172Z,59.40
2018-06-05T06:49:35.399Z,59.70
2018-06-05T06:52:15.934Z,61.70
2018-06-05T06:54:56.154Z,59.20
2018-06-05T06:57:39.790Z,60.40
2018-06-05T07:00:17.429Z,59.40
2018-06-05T07:02:55.563Z,59.50
2018-06-05T07:05:32.260Z,59.90
2018-06-05T07:08:15.895Z,59.70
2018-06-05T07:11:04.077Z,61.30
2018-06-05T07:13:43.839Z,59.00
2018-06-05T07:16:25.548Z,60.00
2018-06-05T07:19:07.825Z,59.60
2018-06-05T07:21:51.422Z,59.30
2018-06-05T07:24:27.219Z,58.30
2018-06-05T07:27:12.874Z,57.50
2018-06-05T07:29:50.333Z,57.70
2018-06-05T07:32:27.192Z,58.20
2018-06-05T07:35:12.023Z,58.40
2018-06-05T07:37:47.203Z,56.60
2018-06-05T07:43:03.580Z,58.10
2018-06-05T07:45:44.637Z,56.80
2018-06-05T07:50:57.067Z,57.80
2018-06-05T07:53:33.775Z,57.20
2018-06-05T07:56:10.192Z,58.50
2018-06-05T08:01:25.705Z,58.90
2018-06-05T08:04:07.321Z,56.30
2018-06-05T08:06:48.292Z,56.30
2018-06-05T08:09:26.167Z,57.80
2018-06-05T08:12:02.069Z,56.60
2018-06-05T08:14:46.549Z,56.10
2018-06-05T08:17:22.037Z,55.20
2018-06-05T08:20:02.540Z,54.20
2018-06-05T08:22:59.980Z,53.70
2018-06-05T08:25:35.467Z,54.50
2018-06-05T08:28:15.509Z,53.50
2018-06-05T08:30:51.091Z,53.30
2018-06-05T08:33:30.274Z,52.40
2018-06-05T08:36:12.580Z,53.20
2018-06-05T08:38:54.232Z,54.00
2018-06-05T08:44:07.563Z,51.90
2018-06-05T08:46:43.054Z,52.90
2018-06-05T08:49:28.630Z,54.00
2018-06-05T08:52:06.859Z,52.30
2018-06-05T08:54:43.143Z,53.10
2018-06-05T08:57:25.446Z,53.20
2018-06-05T09:00:05.326Z,51.50
2018-06-05T09:05:18.881Z,51.70
2018-06-05T09:08:04.940Z,50.80
2018-06-05T09:10:46.776Z,52.10
2018-06-05T09:13:25.267Z,51.00
2018-06-05T09:16:06.010Z,48.70
2018-06-05T09:18:44.069Z,47.00
2018-06-05T09:21:22.033Z,48.40
2018-06-05T09:23:57.937Z,51.50
2018-06-05T09:26:44.025Z,49.30
2018-06-05T09:29:20.123Z,51.30
2018-06-05T09:32:02.637Z,49.40
2018-06-05T09:34:41.434Z,49.00
2018-06-05T09:37:18.721Z,50.40
2018-06-05T09:39:54.496Z,49.20
2018-06-05T09:42:31.391Z,53.30
2018-06-05T09:45:06.520Z,49.10
2018-06-05T09:47:50.383Z,48.50
2018-06-05T09:50:28.347Z,48.00
2018-06-05T09:55:40.335Z,49.40
2018-06-05T10:03:44.451Z,47.50
2018-06-05T10:06:20.081Z,47.80
2018-06-05T10:09:00.056Z,48.50
2018-06-05T10:11:35.818Z,44.50
2018-06-05T10:14:13.784Z,47.20
2018-06-05T10:17:01.231Z,47.60
2018-06-05T10:19:41.813Z,48.40
2018-06-05T10:24:55.370Z,45.10
2018-06-05T10:32:57.058Z,46.00
2018-06-05T10:35:36.551Z,45.80
2018-06-05T10:40:58.770Z,46.20
2018-06-05T10:43:36.648Z,47.60
2018-06-05T10:46:10.180Z,48.10
2018-06-05T10:48:46.391Z,47.30
2018-06-05T10:51:32.439Z,48.40
2018-06-05T10:54:17.360Z,48.10
2018-06-05T10:57:02.169Z,46.10
2018-06-05T10:59:43.188Z,45.10
2018-06-05T11:02:22.120Z,47.50
2018-06-05T11:05:01.565Z,47.20
2018-06-05T11:07:45.695Z,46.30
2018-06-05T11:10:29.736Z,43.70
2018-06-05T11:13:10.558Z,46.30
2018-06-05T11:15:58.070Z,48.60
2018-06-05T11:18:38.866Z,50.30
2018-06-05T11:23:52.302Z,49.60
2018-06-05T11:26:34.079Z,49.20
2018-06-05T11:29:09.634Z,46.80
2018-06-05T11:31:52.012Z,46.40
2018-06-05T11:34:35.654Z,44.40
2018-06-05T11:37:10.399Z,46.40
2018-06-05T11:39:48.350Z,46.10
2018-06-05T11:42:28.518Z,45.20
2018-06-05T11:45:11.573Z,46.00
2018-06-05T11:47:51.441Z,44.90
2018-06-05T11:50:38.225Z,43.40
2018-06-05T11:53:20.192Z,42.90
2018-06-05T11:56:00.448Z,43.90
2018-06-05T11:58:37.903Z,44.80
2018-06-05T12:01:18.544Z,46.80
2018-06-05T12:06:47.054Z,47.80
2018-06-05T12:09:36.994Z,45.80
2018-06-05T12:12:13.385Z,48.30
2018-06-05T12:14:49.654Z,45.60
2018-06-05T12:17:35.113Z,46.60
2018-06-05T12:20:10.018Z,46.30
2018-06-05T12:22:52.998Z,44.90
2018-06-05T12:25:30.478Z,45.20
2018-06-05T12:28:12.757Z,46.40
2018-06-05T12:30:55.978Z,43.10
2018-06-05T12:33:35.806Z,43.60
2018-06-05T12:36:19.870Z,42.80
2018-06-05T12:39:03.621Z,44.00
2018-06-05T12:44:28.145Z,44.20
2018-06-05T12:47:07.944Z,44.10
2018-06-05T12:49:50.352Z,44.40
2018-06-05T12:52:29.504Z,45.10
2018-06-05T12:55:09.235Z,43.20
2018-06-05T12:57:45.456Z,43.40
2018-06-05T13:00:26.717Z,43.70
2018-06-05T13:05:50.321Z,42.10
2018-06-05T13:08:34.353Z,42.80
2018-06-05T13:11:13.515Z,44.40
2018-06-05T13:13:54.962Z,44.60
2018-06-05T13:16:32.697Z,45.10
2018-06-05T13:19:12.698Z,44.80
2018-06-05T13:21:49.446Z,44.40
2018-06-05T13:24:28.201Z,44.10
2018-06-05T13:27:14.434Z,45.10
2018-06-05T13:29:57.576Z,45.90
2018-06-05T13:32:41.982Z,45.30
2018-06-05T13:35:23.844Z,48.10
2018-06-05T13:38:07.984Z,47.90
2018-06-05T13:40:45.623Z,45.80
2018-06-05T13:43:26.165Z,45.40
2018-06-05T13:46:09.078Z,45.70
2018-06-05T13:48:50.599Z,47.30
2018-06-05T13:51:35.232Z,46.90
2018-06-05T13:54:17.535Z,47.40
2018-06-05T13:56:59.771Z,47.70
2018-06-05T13:59:36.465Z,48.20
2018-06-05T14:02:18.103Z,48.20
2018-06-05T14:04:58.509Z,47.90
2018-06-05T14:07:38.670Z,50.50
2018-06-05T14:10:19.089Z,48.10
2018-06-05T14:15:38.242Z,47.80
2018-06-05T14:18:18.871Z,47.30
2018-06-05T14:23:41.547Z,49.30
2018-06-05T14:26:19.664Z,49.50
2018-06-05T14:28:59.890Z,48.20
2018-06-05T14:31:41.314Z,48.40
2018-06-05T14:34:19.829Z,47.90
2018-06-05T14:39:55.655Z,47.90
2018-06-05T14:42:39.106Z,47.60
2018-06-05T14:45:18.570Z,47.30
2018-06-05T14:48:03.921Z,45.20
2018-06-05T14:50:41.035Z,46.00
2018-06-05T14:56:08.350Z,44.80
2018-06-05T14:58:50.730Z,43.70
2018-06-05T15:01:33.169Z,45.70
2018-06-05T15:04:12.641Z,45.60
2018-06-05T15:06:56.671Z,45.00
2018-06-05T15:09:34.683Z,45.30
2018-06-05T15:12:11.992Z,43.80
2018-06-05T15:14:53.956Z,44.50
2018-06-05T15:23:04.464Z,45.30
2018-06-05T15:25:45.302Z,47.10
2018-06-05T15:28:27.178Z,44.80
2018-06-05T15:31:12.142Z,46.50
2018-06-05T15:33:54.102Z,46.10
2018-06-05T15:36:33.647Z,47.50
2018-06-05T15:39:15.064Z,47.70
2018-06-05T15:41:55.376Z,46.80
2018-06-05T15:44:43.961Z,46.90
2018-06-05T15:47:24.669Z,46.60
2018-06-05T15:50:09.774Z,48.10
2018-06-05T15:55:47.286Z,48.80
2018-06-05T15:58:23.674Z,47.20
2018-06-05T16:01:04.313Z,47.80
2018-06-05T16:03:43.667Z,47.60
2018-06-05T16:06:23.788Z,48.40
2018-06-05T16:09:07.816Z,47.50
2018-06-05T16:11:51.747Z,49.10
2018-06-05T16:14:32.981Z,48.80
2018-06-05T16:17:12.540Z,49.70
2018-06-05T16:19:56.151Z,48.80
2018-06-05T16:22:36.064Z,49.10
2018-06-05T16:25:17.023Z,49.60
2018-06-05T16:30:39.100Z,48.90
2018-06-05T16:33:21.522Z,50.60
2018-06-05T16:38:39.464Z,49.40
2018-06-05T16:41:18.201Z,49.50
2018-06-05T16:43:59.213Z,47.40
2018-06-05T16:46:45.110Z,48.90
2018-06-05T16:49:33.144Z,49.30
2018-06-05T16:52:12.226Z,49.40
2018-06-05T16:54:52.089Z,49.60
2018-06-05T16:57:31.529Z,49.50
2018-06-05T17:02:49.911Z,50.30
2018-06-05T17:05:29.532Z,50.80
2018-06-05T17:08:09.330Z,51.60
2018-06-05T17:10:58.062Z,52.40
2018-06-05T17:13:39.582Z,52.30
2018-06-05T17:16:23.248Z,52.30
2018-06-05T17:19:05.094Z,51.40
2018-06-05T17:21:46.991Z,51.50
2018-06-05T17:24:33.729Z,51.40
2018-06-05T17:27:12.836Z,50.80
2018-06-05T17:29:50.948Z,51.50
2018-06-05T17:32:29.142Z,51.60
2018-06-05T17:35:14.973Z,52.20
2018-06-05T17:38:01.470Z,51.20
2018-06-05T17:40:44.154Z,51.70
2018-06-05T17:43:31.541Z,52.70
2018-06-05T17:46:14.665Z,51.90
2018-06-05T17:49:01.448Z,52.50
2018-06-05T17:51:46.404Z,52.90
2018-06-05T17:54:29.619Z,52.90
2018-06-05T17:57:08.327Z,53.30
2018-06-05T18:07:58.531Z,55.20
2018-06-05T18:10:37.486Z,55.80
2018-06-05T18:13:14.616Z,55.90
2018-06-05T18:15:53.877Z,56.20
2018-06-05T18:18:38.970Z,56.80
2018-06-05T18:21:25.161Z,56.90
2018-06-05T18:24:04.754Z,56.70
2018-06-05T18:26:51.086Z,56.50
2018-06-05T18:34:50.088Z,57.10
2018-06-05T18:37:34.138Z,57.70
2018-06-05T18:40:15.316Z,57.30
2018-06-05T18:45:31.043Z,58.00
2018-06-05T18:48:14.710Z,58.20
2018-06-05T18:53:46.877Z,58.50
2018-06-05T18:56:24.335Z,58.40
2018-06-05T18:59:01.503Z,58.30
2018-06-05T19:01:45.973Z,58.00
2018-06-05T19:04:24.630Z,57.90
2018-06-05T19:09:50.317Z,58.00
2018-06-05T19:12:29.596Z,58.40
2018-06-05T19:17:50.106Z,59.10
2018-06-05T19:23:19.764Z,58.50
2018-06-05T19:26:05.591Z,58.40
2018-06-05T19:28:48.121Z,58.50
2018-06-05T19:31:32.136Z,59.10
2018-06-05T19:34:14.384Z,61.30
2018-06-05T19:36:55.288Z,61.20
2018-06-05T19:39:38.172Z,60.00
2018-06-05T19:45:12.117Z,59.50
2018-06-05T19:47:59.140Z,59.10
2018-06-05T19:50:39.788Z,59.10
2018-06-05T19:55:59.368Z,58.80
2018-06-05T20:01:20.543Z,59.10
2018-06-05T20:03:59.658Z,59.30
2018-06-05T20:06:36.915Z,59.30
2018-06-05T20:09:22.287Z,59.60
2018-06-05T20:12:01.733Z,60.30
2018-06-05T20:14:42.641Z,60.20
2018-06-05T20:17:24.489Z,59.70
2018-06-05T20:20:06.508Z,59.70
2018-06-05T20:28:14.479Z,59.50
2018-06-05T20:30:55.423Z,59.30
2018-06-05T20:36:29.345Z,60.50
2018-06-05T20:39:11.899Z,61.10
2018-06-05T20:41:54.374Z,60.90
2018-06-05T20:44:39.239Z,60.20
2018-06-05T20:47:22.010Z,59.90
2018-06-05T20:50:02.290Z,61.40
2018-06-05T20:52:49.246Z,60.50
2018-06-05T20:58:17.055Z,61.30
2018-06-05T21:00:53.153Z,60.80
2018-06-05T21:03:33.907Z,60.60
2018-06-05T21:06:16.941Z,60.20
2018-06-05T21:08:58.878Z,60.20
2018-06-05T21:14:22.994Z,60.00
2018-06-05T21:17:05.305Z,61.30
2018-06-05T21:19:42.559Z,61.40
2018-06-05T21:25:15.119Z,61.60
2018-06-05T21:27:55.152Z,62.50
2018-06-05T21:30:36.924Z,61.90
2018-06-05T21:33:14.304Z,62.00
2018-06-05T21:36:00.563Z,61.60
2018-06-05T21:38:47.586Z,61.40
2018-06-05T21:41:25.956Z,61.40
2018-06-05T21:44:09.324Z,61.20
2018-06-05T21:46:49.832Z,61.70
2018-06-05T21:49:27.640Z,61.60
2018-06-05T21:52:12.152Z,63.30
2018-06-05T21:54:53.242Z,63.80
2018-06-05T22:00:21.826Z,63.60
2018-06-05T22:03:07.758Z,63.60
2018-06-05T22:05:49.265Z,63.40
2018-06-05T22:08:33.092Z,63.60
2018-06-05T22:11:13.710Z,63.80
2018-06-05T22:13:55.167Z,63.70
2018-06-05T22:16:36.280Z,63.20
2018-06-05T22:19:17.000Z,64.00
2018-06-05T22:22:06.299Z,63.80
2018-06-05T22:24:43.762Z,63.30
2018-06-05T22:27:22.478Z,62.60
2018-06-05T22:30:06.226Z,62.40
2018-06-05T22:32:45.261Z,62.90
2018-06-05T22:37:56.882Z,64.20
2018-06-05T22:43:11.765Z,63.50
2018-06-05T22:45:54.357Z,63.10
2018-06-05T22:51:08.251Z,62.70
2018-06-05T22:53:50.913Z,64.20
2018-06-05T22:56:31.886Z,65.10
2018-06-05T22:59:15.437Z,66.30
2018-06-05T23:01:56.112Z,65.10
2018-06-05T23:07:22.770Z,65.40
2018-06-05T23:10:03.122Z,66.10
2018-06-05T23:12:41.640Z,66.50
2018-06-05T23:15:21.171Z,67.20
2018-06-05T23:17:59.988Z,67.00
2018-06-05T23:20:47.861Z,65.40
2018-06-05T23:23:32.194Z,65.80
2018-06-05T23:26:12.328Z,64.30
2018-06-05T23:28:59.090Z,63.60
2018-06-05T23:34:16.365Z,63.60
2018-06-05T23:36:55.643Z,63.70
2018-06-05T23:39:38.698Z,63.80
2018-06-05T23:42:11.976Z,65.20
2018-06-05T23:44:56.511Z,64.50
2018-06-05T23:47:40.999Z,65.40
2018-06-05T23:50:21.295Z,65.60
2018-06-05T23:53:00.847Z,66.60
2018-06-05T23:55:39.322Z,67.20
2018-06-05T23:58:19.384Z,67.60
